createdAt,value
2023-07-06T00:01:02.129Z,3.70
2023-07-06T00:03:33.178Z,3.50
2023-07-06T00:06:04.601Z,3.15
2023-07-06T00:08:32.648Z,3.33
2023-07-06T00:11:01.198Z,3.85
2023-07-06T00:13:30.959Z,3.92
2023-07-06T00:16:01.363Z,3.60
2023-07-06T00:18:29.803Z,3.38
2023-07-06T00:20:59.122Z,2.88
2023-07-06T00:23:27.320Z,3.13
2023-07-06T00:25:55.553Z,3.17
2023-07-06T00:28:27.997Z,3.20
2023-07-06T00:31:10.090Z,3.33
2023-07-06T00:33:38.546Z,3.03
2023-07-06T00:36:06.865Z,3.30
2023-07-06T00:38:35.003Z,2.92
2023-07-06T00:41:04.154Z,3.55
2023-07-06T00:43:48.683Z,3.10
2023-07-06T00:46:20.414Z,3.20
2023-07-06T00:48:52.179Z,3.38
2023-07-06T00:51:24.769Z,3.10
2023-07-06T00:53:57.891Z,2.78
2023-07-06T00:56:28.865Z,3.05
2023-07-06T00:59:08.458Z,3.42
2023-07-06T01:02:01.693Z,3.20
2023-07-06T01:04:33.841Z,2.90
2023-07-06T01:07:03.540Z,3.30
2023-07-06T01:09:31.535Z,3.58
2023-07-06T01:12:00.501Z,3.20
2023-07-06T01:14:29.034Z,3.15
2023-07-06T01:17:06.067Z,3.15
2023-07-06T01:20:05.588Z,3.28
2023-07-06T01:23:05.938Z,3.55
2023-07-06T01:25:57.360Z,3.17
2023-07-06T01:28:55.121Z,2.92
2023-07-06T01:31:43.984Z,3.03
2023-07-06T01:34:22.183Z,3.13
2023-07-06T01:36:58.066Z,3.60
2023-07-06T01:39:30.282Z,3.35
2023-07-06T01:42:29.450Z,3.72
2023-07-06T01:45:04.108Z,3.22
2023-07-06T01:47:36.960Z,3.90
2023-07-06T01:50:07.829Z,3.33
2023-07-06T01:53:02.798Z,3.88
2023-07-06T01:55:34.203Z,3.03
2023-07-06T01:58:09.259Z,3.33
2023-07-06T02:00:41.151Z,3.15
2023-07-06T02:03:11.884Z,3.88
2023-07-06T02:05:42.101Z,3.38
2023-07-06T02:08:12.240Z,3.25
2023-07-06T02:10:40.410Z,3.17
2023-07-06T02:13:08.361Z,3.03
2023-07-06T02:15:36.502Z,3.00
2023-07-06T02:18:04.690Z,3.50
2023-07-06T02:20:35.682Z,3.47
2023-07-06T02:23:09.894Z,3.05
2023-07-06T02:25:38.143Z,3.38
2023-07-06T02:28:06.564Z,2.85
2023-07-06T02:30:34.863Z,3.60
2023-07-06T02:33:03.128Z,3.20
2023-07-06T02:35:33.944Z,3.35
2023-07-06T02:38:03.469Z,3.03
2023-07-06T02:40:31.459Z,3.53
2023-07-06T02:43:00.069Z,3.20
2023-07-06T02:45:29.010Z,3.33
2023-07-06T02:47:57.189Z,3.10
2023-07-06T02:50:25.170Z,3.05
2023-07-06T02:52:53.176Z,3.58
2023-07-06T02:55:24.176Z,3.25
2023-07-06T02:57:52.293Z,3.40
2023-07-06T03:00:20.395Z,3.05
2023-07-06T03:02:51.647Z,3.25
2023-07-06T03:05:23.202Z,3.28
2023-07-06T03:07:54.160Z,2.90
2023-07-06T03:10:26.472Z,3.03
2023-07-06T03:12:55.506Z,3.13
2023-07-06T03:15:23.351Z,3.22
2023-07-06T03:17:52.637Z,3.55
2023-07-06T03:20:26.906Z,3.00
2023-07-06T03:22:56.171Z,2.80
2023-07-06T03:25:27.008Z,2.78
2023-07-06T03:27:55.302Z,3.53
2023-07-06T03:30:25.162Z,3.38
2023-07-06T03:32:56.373Z,3.10
2023-07-06T03:35:25.410Z,2.85
2023-07-06T03:38:00.423Z,2.95
2023-07-06T03:40:31.095Z,2.78
2023-07-06T03:42:59.565Z,3.20
2023-07-06T03:45:27.498Z,3.00
2023-07-06T03:47:55.487Z,3.13
2023-07-06T03:50:23.558Z,3.30
2023-07-06T03:52:51.539Z,3.08
2023-07-06T03:55:22.277Z,3.25
2023-07-06T03:58:03.664Z,3.25
2023-07-06T04:00:35.234Z,3.28
2023-07-06T04:03:05.421Z,2.90
2023-07-06T04:05:36.249Z,2.88
2023-07-06T04:08:07.086Z,3.15
2023-07-06T04:10:36.389Z,3.03
2023-07-06T04:13:06.162Z,3.13
2023-07-06T04:15:35.669Z,3.50
2023-07-06T04:18:06.757Z,3.08
2023-07-06T04:20:35.996Z,3.10
2023-07-06T04:23:04.513Z,3.45
2023-07-06T04:25:35.415Z,2.75
2023-07-06T04:28:06.891Z,3.30
2023-07-06T04:30:35.662Z,3.63
2023-07-06T04:33:11.425Z,3.28
2023-07-06T04:35:40.511Z,3.45
2023-07-06T04:38:09.893Z,3.20
2023-07-06T04:40:42.896Z,3.20
2023-07-06T04:43:13.084Z,3.20
2023-07-06T04:45:41.268Z,3.03
2023-07-06T04:48:09.784Z,3.30
2023-07-06T04:50:38.982Z,2.92
2023-07-06T04:53:09.166Z,3.40
2023-07-06T04:55:38.016Z,3.25
2023-07-06T04:58:07.714Z,2.92
2023-07-06T05:00:41.552Z,3.35
2023-07-06T05:03:10.464Z,3.38
2023-07-06T05:05:42.144Z,3.22
2023-07-06T05:08:12.040Z,3.15
2023-07-06T05:10:40.036Z,3.35
2023-07-06T05:13:08.477Z,3.40
2023-07-06T05:15:38.108Z,3.38
2023-07-06T05:18:08.101Z,3.75
2023-07-06T05:20:36.288Z,3.22
2023-07-06T05:23:07.395Z,3.72
2023-07-06T05:25:36.372Z,3.60
2023-07-06T05:28:04.432Z,3.78
2023-07-06T05:30:32.588Z,3.40
2023-07-06T05:33:02.235Z,3.60
2023-07-06T05:35:30.823Z,3.50
2023-07-06T05:37:58.978Z,3.30
2023-07-06T05:40:27.459Z,3.38
2023-07-06T05:42:56.284Z,3.83
2023-07-06T05:45:24.773Z,3.75
2023-07-06T05:47:52.943Z,3.70
2023-07-06T05:50:22.752Z,3.65
2023-07-06T05:52:51.286Z,3.97
2023-07-06T05:55:19.593Z,4.25
2023-07-06T05:57:48.264Z,4.07
2023-07-06T06:00:16.753Z,4.63
2023-07-06T06:02:46.302Z,4.93
2023-07-06T06:05:17.482Z,4.70
2023-07-06T06:07:51.231Z,5.18
2023-07-06T06:10:19.931Z,4.85
2023-07-06T06:12:49.049Z,4.15
2023-07-06T06:15:18.595Z,5.07
2023-07-06T06:17:46.593Z,5.43
2023-07-06T06:20:14.619Z,5.57
2023-07-06T06:22:42.755Z,4.97
2023-07-06T06:25:12.565Z,5.57
2023-07-06T06:27:40.696Z,5.30
2023-07-06T06:30:10.323Z,4.53
2023-07-06T06:32:38.482Z,4.50
2023-07-06T06:35:22.680Z,4.82
2023-07-06T06:37:51.397Z,4.35
2023-07-06T06:40:22.668Z,4.38
2023-07-06T06:42:51.746Z,4.35
2023-07-06T06:45:20.978Z,4.15
2023-07-06T06:47:49.508Z,4.22
2023-07-06T06:51:16.214Z,3.78
2023-07-06T06:53:46.025Z,3.85
2023-07-06T06:56:15.583Z,4.18
2023-07-06T06:58:45.123Z,3.58
2023-07-06T07:01:15.240Z,3.90
2023-07-06T18:42:22.885Z,1.75
2023-07-06T18:45:00.224Z,2.60
2023-07-06T18:47:28.226Z,2.05
2023-07-06T18:49:55.956Z,1.95
2023-07-06T18:52:24.122Z,2.08
2023-07-06T18:54:51.867Z,1.73
2023-07-06T18:57:22.528Z,1.42
2023-07-06T18:59:51.328Z,1.92
2023-07-06T19:02:19.500Z,2.00
2023-07-06T19:04:47.523Z,1.75
2023-07-06T19:07:15.663Z,2.10
2023-07-06T19:09:48.441Z,1.90
2023-07-06T19:12:17.007Z,2.17
2023-07-06T19:14:46.289Z,2.00
2023-07-06T19:17:15.597Z,1.75
2023-07-06T19:19:43.552Z,1.85
2023-07-06T19:22:11.633Z,2.13
2023-07-06T19:24:39.526Z,1.67
2023-07-06T19:27:08.086Z,1.92
2023-07-06T19:29:35.924Z,4.07
2023-07-06T19:32:16.651Z,2.40
2023-07-06T19:34:46.224Z,2.20
2023-07-06T19:37:14.164Z,2.20
2023-07-06T19:39:44.438Z,2.10
2023-07-06T19:42:12.305Z,2.15
2023-07-06T19:44:40.315Z,2.20
2023-07-06T19:47:09.763Z,2.03
2023-07-06T19:49:37.927Z,2.20
2023-07-06T19:52:07.541Z,1.80
2023-07-06T19:54:35.450Z,2.05
2023-07-06T19:57:03.397Z,2.00
2023-07-06T19:59:31.407Z,2.22
2023-07-06T20:02:00.033Z,2.20
2023-07-06T20:04:29.513Z,2.30
2023-07-06T20:06:57.365Z,2.30
2023-07-06T20:09:25.335Z,2.50
2023-07-06T20:11:53.742Z,2.70
2023-07-06T20:14:21.641Z,2.15
2023-07-06T20:16:50.027Z,2.22
2023-07-06T20:19:18.184Z,1.92
2023-07-06T20:21:47.590Z,1.98
2023-07-06T20:24:16.853Z,1.98
2023-07-06T20:26:46.387Z,2.10
2023-07-06T20:29:15.413Z,2.08
2023-07-06T20:31:43.192Z,2.00
2023-07-06T20:34:11.131Z,2.20
2023-07-06T20:36:39.069Z,2.28
2023-07-06T20:39:08.939Z,1.92
2023-07-06T20:41:38.076Z,2.00
2023-07-06T20:44:08.966Z,2.30
2023-07-06T20:46:36.890Z,2.50
2023-07-06T20:49:04.903Z,2.30
2023-07-06T20:51:33.046Z,2.05
2023-07-06T20:54:01.047Z,2.10
2023-07-06T20:56:30.471Z,2.20
2023-07-06T20:58:58.511Z,2.38
2023-07-06T21:01:26.474Z,2.13
2023-07-06T21:03:54.470Z,2.15
2023-07-06T21:06:22.445Z,2.38
2023-07-06T21:08:50.366Z,1.98
2023-07-06T21:11:18.085Z,1.95
2023-07-06T21:13:47.594Z,2.10
2023-07-06T21:16:34.856Z,2.08
2023-07-06T21:19:03.352Z,2.10
2023-07-06T21:21:31.178Z,2.10
2023-07-06T21:23:59.062Z,2.58
2023-07-06T21:26:26.953Z,2.28
2023-07-06T21:28:56.392Z,2.22
2023-07-06T21:31:24.361Z,1.80
2023-07-06T21:33:52.525Z,2.33
2023-07-06T21:36:20.544Z,2.38
2023-07-06T21:38:49.144Z,2.35
2023-07-06T21:41:18.143Z,2.17
2023-07-06T21:43:46.697Z,2.03
2023-07-06T21:46:16.213Z,1.98
2023-07-06T21:48:45.333Z,2.22
2023-07-06T21:51:14.175Z,2.42
2023-07-06T21:53:42.785Z,2.30
2023-07-06T21:56:13.680Z,2.40
2023-07-06T21:58:42.457Z,2.38
2023-07-06T22:01:12.265Z,2.10
2023-07-06T22:03:42.208Z,2.55
2023-07-06T22:06:11.792Z,2.75
2023-07-06T22:08:41.807Z,2.38
2023-07-06T22:11:12.302Z,2.17
2023-07-06T22:13:41.633Z,2.30
2023-07-06T22:16:10.195Z,2.00
2023-07-06T22:18:38.925Z,2.20
2023-07-06T22:21:08.521Z,2.00
2023-07-06T22:23:37.823Z,2.30
2023-07-06T22:26:07.508Z,2.20
2023-07-06T22:28:35.289Z,2.53
2023-07-06T22:31:04.924Z,2.53
2023-07-06T22:33:34.703Z,2.53
2023-07-06T22:36:08.691Z,2.03
2023-07-06T22:38:39.013Z,2.53
2023-07-06T22:41:07.304Z,2.30
2023-07-06T22:43:36.246Z,2.50
2023-07-06T22:46:03.973Z,2.30
2023-07-06T22:48:31.935Z,2.28
2023-07-06T22:51:02.796Z,2.00
2023-07-06T22:53:31.547Z,2.50
2023-07-06T22:56:00.903Z,2.50
2023-07-06T22:58:28.857Z,2.08
2023-07-06T23:00:56.892Z,2.10
2023-07-06T23:03:25.011Z,2.78
2023-07-06T23:06:00.969Z,2.00
2023-07-06T23:08:28.802Z,2.30
2023-07-06T23:10:57.570Z,2.28
2023-07-06T23:13:31.225Z,2.50
2023-07-06T23:15:59.860Z,2.30
2023-07-06T23:18:28.703Z,2.25
2023-07-06T23:20:57.657Z,1.92
2023-07-06T23:23:26.729Z,2.33
2023-07-06T23:25:54.638Z,2.13
2023-07-06T23:28:23.197Z,2.33
2023-07-06T23:30:54.251Z,2.63
2023-07-06T23:33:22.514Z,2.20
2023-07-06T23:35:52.015Z,2.10
2023-07-06T23:38:21.405Z,2.00
2023-07-06T23:40:49.279Z,2.03
2023-07-06T23:43:17.173Z,1.92
2023-07-06T23:45:44.952Z,2.17
2023-07-06T23:48:14.275Z,2.38
2023-07-06T23:50:42.213Z,2.30
2023-07-06T23:53:10.519Z,2.38
2023-07-06T23:55:38.655Z,2.25
2023-07-06T23:58:10.206Z,2.08
